sensor_id;sensor_type;location;lat;lon;timestamp;P1;durP1;ratioP1;P2;durP2;ratioP2
14592;SDS011;7383;52.354;9.756;2022-12-16T00:00:09;9.95;;;8.93;;
14592;SDS011;7383;52.354;9.756;2022-12-16T00:02:36;10.60;;;9.50;;
14592;SDS011;7383;52.354;9.756;2022-12-16T00:05:03;11.20;;;9.68;;
14592;SDS011;7383;52.354;9.756;2022-12-16T00:07:32;12.32;;;10.02;;
14592;SDS011;7383;52.354;9.756;2022-12-16T00:09:59;11.38;;;10.20;;
14592;SDS011;7383;52.354;9.756;2022-12-16T00:12:26;11.48;;;10.02;;
14592;SDS011;7383;52.354;9.756;2022-12-16T00:14:52;10.68;;;9.57;;
14592;SDS011;7383;52.354;9.756;2022-12-16T00:17:20;10.77;;;9.57;;
14592;SDS011;7383;52.354;9.756;2022-12-16T00:19:47;10.98;;;9.65;;
14592;SDS011;7383;52.354;9.756;2022-12-16T00:22:13;11.45;;;9.80;;
14592;SDS011;7383;52.354;9.756;2022-12-16T00:24:40;10.77;;;9.05;;
14592;SDS011;7383;52.354;9.756;2022-12-16T00:27:06;10.80;;;9.70;;
14592;SDS011;7383;52.354;9.756;2022-12-16T00:29:32;10.80;;;9.55;;
14592;SDS011;7383;52.354;9.756;2022-12-16T00:31:59;12.10;;;10.13;;
14592;SDS011;7383;52.354;9.756;2022-12-16T00:34:28;11.93;;;10.43;;
14592;SDS011;7383;52.354;9.756;2022-12-16T00:36:54;10.55;;;9.45;;
14592;SDS011;7383;52.354;9.756;2022-12-16T00:39:20;11.32;;;10.00;;
14592;SDS011;7383;52.354;9.756;2022-12-16T00:41:47;11.02;;;9.65;;
14592;SDS011;7383;52.354;9.756;2022-12-16T00:44:14;12.75;;;10.30;;
14592;SDS011;7383;52.354;9.756;2022-12-16T00:46:41;11.55;;;10.35;;
14592;SDS011;7383;52.354;9.756;2022-12-16T00:49:08;12.98;;;10.18;;
14592;SDS011;7383;52.354;9.756;2022-12-16T00:51:36;10.40;;;9.30;;
14592;SDS011;7383;52.354;9.756;2022-12-16T00:54:02;11.13;;;9.60;;
14592;SDS011;7383;52.354;9.756;2022-12-16T00:56:29;12.50;;;10.43;;
14592;SDS011;7383;52.354;9.756;2022-12-16T00:58:55;11.38;;;10.00;;
14592;SDS011;7383;52.354;9.756;2022-12-16T01:01:22;12.18;;;10.63;;
14592;SDS011;7383;52.354;9.756;2022-12-16T01:03:48;11.48;;;10.32;;
14592;SDS011;7383;52.354;9.756;2022-12-16T01:06:15;13.48;;;10.63;;
14592;SDS011;7383;52.354;9.756;2022-12-16T01:08:43;13.20;;;10.00;;
14592;SDS011;7383;52.354;9.756;2022-12-16T01:11:12;11.80;;;10.27;;
14592;SDS011;7383;52.354;9.756;2022-12-16T01:13:39;11.95;;;10.18;;
14592;SDS011;7383;52.354;9.756;2022-12-16T01:16:06;12.07;;;10.38;;
14592;SDS011;7383;52.354;9.756;2022-12-16T01:18:32;11.63;;;10.18;;
14592;SDS011;7383;52.354;9.756;2022-12-16T01:21:00;13.20;;;10.63;;
14592;SDS011;7383;52.354;9.756;2022-12-16T01:23:29;11.57;;;10.38;;
14592;SDS011;7383;52.354;9.756;2022-12-16T01:25:57;12.02;;;10.13;;
14592;SDS011;7383;52.354;9.756;2022-12-16T01:28:24;13.35;;;10.65;;
14592;SDS011;7383;52.354;9.756;2022-12-16T01:30:53;11.20;;;10.05;;
14592;SDS011;7383;52.354;9.756;2022-12-16T01:33:21;11.65;;;10.00;;
14592;SDS011;7383;52.354;9.756;2022-12-16T01:35:47;10.65;;;9.52;;
14592;SDS011;7383;52.354;9.756;2022-12-16T01:38:13;10.73;;;9.57;;
14592;SDS011;7383;52.354;9.756;2022-12-16T01:40:40;11.45;;;9.93;;
14592;SDS011;7383;52.354;9.756;2022-12-16T01:43:10;14.10;;;10.57;;
14592;SDS011;7383;52.354;9.756;2022-12-16T01:45:37;12.32;;;11.00;;
14592;SDS011;7383;52.354;9.756;2022-12-16T01:48:06;14.35;;;11.10;;
14592;SDS011;7383;52.354;9.756;2022-12-16T01:50:40;12.98;;;10.60;;
14592;SDS011;7383;52.354;9.756;2022-12-16T01:53:07;11.93;;;10.32;;
14592;SDS011;7383;52.354;9.756;2022-12-16T01:55:34;11.73;;;10.50;;
14592;SDS011;7383;52.354;9.756;2022-12-16T01:58:01;11.93;;;10.20;;
14592;SDS011;7383;52.354;9.756;2022-12-16T02:00:31;12.15;;;10.20;;
14592;SDS011;7383;52.354;9.756;2022-12-16T02:02:58;11.05;;;10.00;;
14592;SDS011;7383;52.354;9.756;2022-12-16T02:05:25;11.77;;;10.55;;
14592;SDS011;7383;52.354;9.756;2022-12-16T02:07:56;10.98;;;9.75;;
14592;SDS011;7383;52.354;9.756;2022-12-16T02:10:27;11.88;;;10.25;;
14592;SDS011;7383;52.354;9.756;2022-12-16T02:12:56;11.18;;;9.98;;
14592;SDS011;7383;52.354;9.756;2022-12-16T02:15:31;11.95;;;10.65;;
14592;SDS011;7383;52.354;9.756;2022-12-16T02:18:03;13.27;;;10.23;;
14592;SDS011;7383;52.354;9.756;2022-12-16T02:28:50;11.48;;;10.27;;
14592;SDS011;7383;52.354;9.756;2022-12-16T02:31:23;12.40;;;10.75;;
14592;SDS011;7383;52.354;9.756;2022-12-16T02:33:55;11.13;;;9.93;;
14592;SDS011;7383;52.354;9.756;2022-12-16T02:36:30;12.32;;;9.77;;
14592;SDS011;7383;52.354;9.756;2022-12-16T02:38:59;12.48;;;10.75;;
14592;SDS011;7383;52.354;9.756;2022-12-16T02:41:28;11.02;;;9.57;;
14592;SDS011;7383;52.354;9.756;2022-12-16T02:43:57;12.48;;;10.70;;
14592;SDS011;7383;52.354;9.756;2022-12-16T02:46:26;13.25;;;11.18;;
14592;SDS011;7383;52.354;9.756;2022-12-16T02:48:52;12.20;;;10.15;;
14592;SDS011;7383;52.354;9.756;2022-12-16T02:51:19;11.40;;;10.18;;
14592;SDS011;7383;52.354;9.756;2022-12-16T02:53:46;11.40;;;10.00;;
14592;SDS011;7383;52.354;9.756;2022-12-16T02:56:17;12.48;;;10.23;;
14592;SDS011;7383;52.354;9.756;2022-12-16T02:58:49;11.70;;;10.40;;
14592;SDS011;7383;52.354;9.756;2022-12-16T03:01:18;11.55;;;10.15;;
14592;SDS011;7383;52.354;9.756;2022-12-16T03:03:51;11.57;;;10.38;;
14592;SDS011;7383;52.354;9.756;2022-12-16T03:06:19;12.80;;;10.45;;
14592;SDS011;7383;52.354;9.756;2022-12-16T03:08:48;12.00;;;10.27;;
14592;SDS011;7383;52.354;9.756;2022-12-16T03:11:14;12.60;;;10.63;;
14592;SDS011;7383;52.354;9.756;2022-12-16T03:13:42;12.27;;;10.68;;
14592;SDS011;7383;52.354;9.756;2022-12-16T03:16:10;13.52;;;11.23;;
14592;SDS011;7383;52.354;9.756;2022-12-16T03:18:39;13.60;;;11.45;;
14592;SDS011;7383;52.354;9.756;2022-12-16T03:21:08;11.95;;;10.68;;
14592;SDS011;7383;52.354;9.756;2022-12-16T03:23:38;12.27;;;10.05;;
14592;SDS011;7383;52.354;9.756;2022-12-16T03:26:14;12.32;;;10.68;;
14592;SDS011;7383;52.354;9.756;2022-12-16T03:28:43;12.02;;;10.68;;
14592;SDS011;7383;52.354;9.756;2022-12-16T03:31:17;11.82;;;10.63;;
14592;SDS011;7383;52.354;9.756;2022-12-16T03:33:47;10.85;;;9.50;;
14592;SDS011;7383;52.354;9.756;2022-12-16T03:36:17;11.82;;;10.60;;
14592;SDS011;7383;52.354;9.756;2022-12-16T03:38:45;13.63;;;11.48;;
14592;SDS011;7383;52.354;9.756;2022-12-16T03:41:12;11.60;;;10.38;;
14592;SDS011;7383;52.354;9.756;2022-12-16T03:43:41;10.75;;;9.65;;
14592;SDS011;7383;52.354;9.756;2022-12-16T03:46:10;11.82;;;10.55;;
14592;SDS011;7383;52.354;9.756;2022-12-16T03:48:43;11.23;;;10.13;;
14592;SDS011;7383;52.354;9.756;2022-12-16T03:51:10;12.63;;;10.80;;
14592;SDS011;7383;52.354;9.756;2022-12-16T03:53:37;11.13;;;9.95;;
14592;SDS011;7383;52.354;9.756;2022-12-16T03:56:04;11.48;;;10.27;;
14592;SDS011;7383;52.354;9.756;2022-12-16T03:58:31;12.25;;;10.57;;
14592;SDS011;7383;52.354;9.756;2022-12-16T04:00:59;12.95;;;10.80;;
14592;SDS011;7383;52.354;9.756;2022-12-16T04:03:25;11.50;;;9.98;;
14592;SDS011;7383;52.354;9.756;2022-12-16T04:05:51;13.10;;;10.77;;
14592;SDS011;7383;52.354;9.756;2022-12-16T04:08:18;13.50;;;11.10;;
14592;SDS011;7383;52.354;9.756;2022-12-16T04:10:45;13.55;;;10.80;;
14592;SDS011;7383;52.354;9.756;2022-12-16T04:13:29;11.95;;;10.57;;
14592;SDS011;7383;52.354;9.756;2022-12-16T04:16:13;11.40;;;10.15;;
14592;SDS011;7383;52.354;9.756;2022-12-16T04:18:58;12.65;;;11.35;;
14592;SDS011;7383;52.354;9.756;2022-12-16T04:21:42;11.48;;;10.18;;
14592;SDS011;7383;52.354;9.756;2022-12-16T04:24:26;12.07;;;10.43;;
14592;SDS011;7383;52.354;9.756;2022-12-16T04:26:55;12.68;;;10.77;;
14592;SDS011;7383;52.354;9.756;2022-12-16T04:29:39;11.93;;;10.05;;
14592;SDS011;7383;52.354;9.756;2022-12-16T04:32:27;12.27;;;10.77;;
14592;SDS011;7383;52.354;9.756;2022-12-16T04:35:14;12.88;;;10.68;;
14592;SDS011;7383;52.354;9.756;2022-12-16T04:37:58;12.10;;;10.80;;
14592;SDS011;7383;52.354;9.756;2022-12-16T04:40:42;11.57;;;10.10;;
14592;SDS011;7383;52.354;9.756;2022-12-16T04:43:27;12.25;;;10.60;;
14592;SDS011;7383;52.354;9.756;2022-12-16T04:46:11;12.93;;;10.55;;
14592;SDS011;7383;52.354;9.756;2022-12-16T04:48:55;11.68;;;10.48;;
14592;SDS011;7383;52.354;9.756;2022-12-16T04:51:39;12.00;;;10.43;;
14592;SDS011;7383;52.354;9.756;2022-12-16T04:54:23;11.07;;;9.75;;
14592;SDS011;7383;52.354;9.756;2022-12-16T04:57:06;11.27;;;10.07;;
14592;SDS011;7383;52.354;9.756;2022-12-16T04:59:52;15.13;;;11.77;;
14592;SDS011;7383;52.354;9.756;2022-12-16T05:02:36;13.40;;;10.98;;
14592;SDS011;7383;52.354;9.756;2022-12-16T05:05:20;13.80;;;11.32;;
14592;SDS011;7383;52.354;9.756;2022-12-16T05:08:04;13.05;;;10.48;;
14592;SDS011;7383;52.354;9.756;2022-12-16T05:10:47;13.90;;;10.65;;
14592;SDS011;7383;52.354;9.756;2022-12-16T05:13:31;14.38;;;11.60;;
14592;SDS011;7383;52.354;9.756;2022-12-16T05:16:17;12.27;;;10.77;;
14592;SDS011;7383;52.354;9.756;2022-12-16T05:19:00;12.75;;;11.15;;
14592;SDS011;7383;52.354;9.756;2022-12-16T05:21:44;14.20;;;11.77;;
14592;SDS011;7383;52.354;9.756;2022-12-16T05:24:37;13.63;;;11.57;;
14592;SDS011;7383;52.354;9.756;2022-12-16T05:27:20;14.18;;;11.52;;
14592;SDS011;7383;52.354;9.756;2022-12-16T05:30:05;14.52;;;11.70;;
14592;SDS011;7383;52.354;9.756;2022-12-16T05:32:50;13.43;;;11.68;;
14592;SDS011;7383;52.354;9.756;2022-12-16T05:35:34;14.43;;;12.00;;
14592;SDS011;7383;52.354;9.756;2022-12-16T05:38:18;13.93;;;11.65;;
14592;SDS011;7383;52.354;9.756;2022-12-16T05:41:02;13.73;;;11.50;;
14592;SDS011;7383;52.354;9.756;2022-12-16T05:43:46;12.40;;;10.77;;
14592;SDS011;7383;52.354;9.756;2022-12-16T05:46:32;15.13;;;11.85;;
14592;SDS011;7383;52.354;9.756;2022-12-16T05:49:17;13.82;;;11.45;;
14592;SDS011;7383;52.354;9.756;2022-12-16T05:52:01;13.18;;;11.23;;
14592;SDS011;7383;52.354;9.756;2022-12-16T05:54:45;13.60;;;11.30;;
14592;SDS011;7383;52.354;9.756;2022-12-16T05:57:29;12.23;;;10.98;;
14592;SDS011;7383;52.354;9.756;2022-12-16T06:00:13;14.05;;;11.15;;
14592;SDS011;7383;52.354;9.756;2022-12-16T06:02:57;13.32;;;10.90;;
14592;SDS011;7383;52.354;9.756;2022-12-16T06:05:42;13.75;;;11.85;;
14592;SDS011;7383;52.354;9.756;2022-12-16T06:08:26;13.48;;;11.95;;
14592;SDS011;7383;52.354;9.756;2022-12-16T06:11:10;12.80;;;10.48;;
14592;SDS011;7383;52.354;9.756;2022-12-16T06:13:54;14.30;;;11.65;;
14592;SDS011;7383;52.354;9.756;2022-12-16T06:16:38;13.75;;;11.30;;
14592;SDS011;7383;52.354;9.756;2022-12-16T06:19:22;12.40;;;10.95;;
14592;SDS011;7383;52.354;9.756;2022-12-16T06:22:07;13.10;;;10.65;;
14592;SDS011;7383;52.354;9.756;2022-12-16T06:24:51;13.85;;;10.77;;
14592;SDS011;7383;52.354;9.756;2022-12-16T06:27:35;11.75;;;10.43;;
14592;SDS011;7383;52.354;9.756;2022-12-16T06:30:19;13.05;;;11.25;;
14592;SDS011;7383;52.354;9.756;2022-12-16T06:33:03;11.80;;;10.57;;
14592;SDS011;7383;52.354;9.756;2022-12-16T06:35:47;15.05;;;12.00;;
14592;SDS011;7383;52.354;9.756;2022-12-16T06:38:32;14.02;;;11.18;;
14592;SDS011;7383;52.354;9.756;2022-12-16T06:41:16;12.25;;;10.57;;
14592;SDS011;7383;52.354;9.756;2022-12-16T06:44:00;11.98;;;10.57;;
14592;SDS011;7383;52.354;9.756;2022-12-16T06:46:44;12.57;;;11.20;;
14592;SDS011;7383;52.354;9.756;2022-12-16T06:49:28;13.73;;;11.57;;
14592;SDS011;7383;52.354;9.756;2022-12-16T06:52:12;11.75;;;10.55;;
14592;SDS011;7383;52.354;9.756;2022-12-16T06:54:57;12.70;;;10.85;;
14592;SDS011;7383;52.354;9.756;2022-12-16T06:57:41;13.05;;;11.25;;
14592;SDS011;7383;52.354;9.756;2022-12-16T07:00:25;13.45;;;11.15;;
14592;SDS011;7383;52.354;9.756;2022-12-16T07:03:09;12.95;;;11.15;;
14592;SDS011;7383;52.354;9.756;2022-12-16T07:05:53;13.02;;;10.90;;
14592;SDS011;7383;52.354;9.756;2022-12-16T07:08:37;13.23;;;11.15;;
14592;SDS011;7383;52.354;9.756;2022-12-16T07:11:22;12.57;;;10.93;;
14592;SDS011;7383;52.354;9.756;2022-12-16T07:14:06;12.27;;;10.82;;
14592;SDS011;7383;52.354;9.756;2022-12-16T07:16:50;14.05;;;11.15;;
14592;SDS011;7383;52.354;9.756;2022-12-16T07:19:34;14.73;;;12.45;;
14592;SDS011;7383;52.354;9.756;2022-12-16T07:22:18;14.77;;;11.65;;
14592;SDS011;7383;52.354;9.756;2022-12-16T07:25:02;15.25;;;12.10;;
14592;SDS011;7383;52.354;9.756;2022-12-16T07:27:47;14.45;;;11.73;;
14592;SDS011;7383;52.354;9.756;2022-12-16T07:30:31;13.55;;;11.68;;
14592;SDS011;7383;52.354;9.756;2022-12-16T07:33:15;14.48;;;11.60;;
14592;SDS011;7383;52.354;9.756;2022-12-16T07:35:59;14.68;;;12.02;;
14592;SDS011;7383;52.354;9.756;2022-12-16T07:38:43;16.95;;;12.68;;
14592;SDS011;7383;52.354;9.756;2022-12-16T07:41:27;14.93;;;12.05;;
14592;SDS011;7383;52.354;9.756;2022-12-16T07:44:12;16.33;;;13.15;;
14592;SDS011;7383;52.354;9.756;2022-12-16T07:46:56;13.65;;;11.55;;
14592;SDS011;7383;52.354;9.756;2022-12-16T07:49:40;13.85;;;10.95;;
14592;SDS011;7383;52.354;9.756;2022-12-16T07:52:24;12.73;;;10.85;;
14592;SDS011;7383;52.354;9.756;2022-12-16T07:55:08;13.38;;;11.98;;
14592;SDS011;7383;52.354;9.756;2022-12-16T07:57:52;12.57;;;11.10;;
14592;SDS011;7383;52.354;9.756;2022-12-16T08:00:37;15.82;;;12.00;;
14592;SDS011;7383;52.354;9.756;2022-12-16T08:03:21;12.63;;;11.32;;
14592;SDS011;7383;52.354;9.756;2022-12-16T08:06:05;12.32;;;11.00;;
14592;SDS011;7383;52.354;9.756;2022-12-16T08:08:49;14.07;;;11.00;;
14592;SDS011;7383;52.354;9.756;2022-12-16T08:11:33;13.25;;;11.00;;
14592;SDS011;7383;52.354;9.756;2022-12-16T08:14:17;14.13;;;12.07;;
14592;SDS011;7383;52.354;9.756;2022-12-16T08:20:01;13.15;;;10.93;;
14592;SDS011;7383;52.354;9.756;2022-12-16T08:22:47;17.45;;;14.38;;
14592;SDS011;7383;52.354;9.756;2022-12-16T08:25:36;13.65;;;12.25;;
14592;SDS011;7383;52.354;9.756;2022-12-16T08:28:26;16.17;;;12.85;;
14592;SDS011;7383;52.354;9.756;2022-12-16T08:31:12;14.43;;;12.32;;
14592;SDS011;7383;52.354;9.756;2022-12-16T08:33:56;13.57;;;11.45;;
14592;SDS011;7383;52.354;9.756;2022-12-16T08:36:44;14.27;;;11.32;;
14592;SDS011;7383;52.354;9.756;2022-12-16T08:39:33;14.13;;;12.30;;
14592;SDS011;7383;52.354;9.756;2022-12-16T08:42:16;14.93;;;11.93;;
14592;SDS011;7383;52.354;9.756;2022-12-16T08:45:00;12.13;;;10.50;;
14592;SDS011;7383;52.354;9.756;2022-12-16T08:47:44;15.85;;;11.60;;
14592;SDS011;7383;52.354;9.756;2022-12-16T08:50:28;12.63;;;10.95;;
14592;SDS011;7383;52.354;9.756;2022-12-16T08:53:13;13.45;;;10.35;;
14592;SDS011;7383;52.354;9.756;2022-12-16T08:55:57;12.65;;;10.77;;
14592;SDS011;7383;52.354;9.756;2022-12-16T08:58:41;13.90;;;11.75;;
14592;SDS011;7383;52.354;9.756;2022-12-16T09:01:25;11.25;;;10.07;;
14592;SDS011;7383;52.354;9.756;2022-12-16T09:04:09;13.68;;;11.90;;
14592;SDS011;7383;52.354;9.756;2022-12-16T09:06:53;12.32;;;10.52;;
14592;SDS011;7383;52.354;9.756;2022-12-16T09:09:38;12.15;;;10.50;;
14592;SDS011;7383;52.354;9.756;2022-12-16T09:12:19;11.68;;;10.48;;
14592;SDS011;7383;52.354;9.756;2022-12-16T09:15:03;11.70;;;10.07;;
14592;SDS011;7383;52.354;9.756;2022-12-16T09:17:51;12.85;;;10.40;;
14592;SDS011;7383;52.354;9.756;2022-12-16T09:20:35;14.48;;;10.90;;
14592;SDS011;7383;52.354;9.756;2022-12-16T09:23:19;11.57;;;10.27;;
14592;SDS011;7383;52.354;9.756;2022-12-16T09:26:05;12.80;;;10.60;;
14592;SDS011;7383;52.354;9.756;2022-12-16T09:28:50;11.43;;;10.18;;
14592;SDS011;7383;52.354;9.756;2022-12-16T09:31:34;11.32;;;8.95;;
14592;SDS011;7383;52.354;9.756;2022-12-16T09:40:07;10.98;;;9.88;;
14592;SDS011;7383;52.354;9.756;2022-12-16T09:42:59;11.05;;;9.82;;
14592;SDS011;7383;52.354;9.756;2022-12-16T09:45:50;12.20;;;10.48;;
14592;SDS011;7383;52.354;9.756;2022-12-16T09:48:38;13.15;;;10.45;;
14592;SDS011;7383;52.354;9.756;2022-12-16T09:51:24;10.80;;;9.70;;
14592;SDS011;7383;52.354;9.756;2022-12-16T09:54:08;11.52;;;9.52;;
14592;SDS011;7383;52.354;9.756;2022-12-16T09:56:54;12.73;;;10.02;;
14592;SDS011;7383;52.354;9.756;2022-12-16T09:59:40;10.98;;;9.65;;
14592;SDS011;7383;52.354;9.756;2022-12-16T10:02:25;11.30;;;10.13;;
14592;SDS011;7383;52.354;9.756;2022-12-16T10:05:09;13.25;;;10.40;;
14592;SDS011;7383;52.354;9.756;2022-12-16T10:07:55;12.27;;;10.20;;
14592;SDS011;7383;52.354;9.756;2022-12-16T10:10:45;12.50;;;11.20;;
14592;SDS011;7383;52.354;9.756;2022-12-16T10:13:33;12.98;;;10.90;;
14592;SDS011;7383;52.354;9.756;2022-12-16T10:16:21;11.45;;;10.32;;
14592;SDS011;7383;52.354;9.756;2022-12-16T10:19:10;12.65;;;10.70;;
14592;SDS011;7383;52.354;9.756;2022-12-16T10:21:59;12.73;;;10.93;;
14592;SDS011;7383;52.354;9.756;2022-12-16T10:24:47;11.15;;;10.05;;
14592;SDS011;7383;52.354;9.756;2022-12-16T10:27:35;12.02;;;10.68;;
14592;SDS011;7383;52.354;9.756;2022-12-16T10:30:20;14.82;;;11.07;;
14592;SDS011;7383;52.354;9.756;2022-12-16T10:33:07;12.25;;;10.95;;
14592;SDS011;7383;52.354;9.756;2022-12-16T10:35:51;12.52;;;10.73;;
14592;SDS011;7383;52.354;9.756;2022-12-16T10:38:38;12.20;;;10.90;;
14592;SDS011;7383;52.354;9.756;2022-12-16T10:41:24;13.95;;;10.70;;
14592;SDS011;7383;52.354;9.756;2022-12-16T10:44:12;13.68;;;11.60;;
14592;SDS011;7383;52.354;9.756;2022-12-16T10:46:58;12.05;;;10.57;;
14592;SDS011;7383;52.354;9.756;2022-12-16T10:49:44;13.15;;;11.50;;
14592;SDS011;7383;52.354;9.756;2022-12-16T10:52:27;12.57;;;10.98;;
14592;SDS011;7383;52.354;9.756;2022-12-16T10:55:14;12.43;;;11.07;;
14592;SDS011;7383;52.354;9.756;2022-12-16T10:58:04;13.98;;;10.80;;
14592;SDS011;7383;52.354;9.756;2022-12-16T11:00:50;11.85;;;10.65;;
14592;SDS011;7383;52.354;9.756;2022-12-16T11:03:35;13.00;;;11.60;;
14592;SDS011;7383;52.354;9.756;2022-12-16T11:06:21;11.57;;;10.40;;
14592;SDS011;7383;52.354;9.756;2022-12-16T11:12:20;12.48;;;11.18;;
14592;SDS011;7383;52.354;9.756;2022-12-16T11:15:21;11.43;;;10.23;;
14592;SDS011;7383;52.354;9.756;2022-12-16T11:18:08;13.40;;;10.18;;
14592;SDS011;7383;52.354;9.756;2022-12-16T11:21:10;12.45;;;10.13;;
14592;SDS011;7383;52.354;9.756;2022-12-16T11:24:11;12.52;;;11.10;;
14592;SDS011;7383;52.354;9.756;2022-12-16T11:26:56;12.48;;;11.27;;
14592;SDS011;7383;52.354;9.756;2022-12-16T11:29:53;12.63;;;10.82;;
14592;SDS011;7383;52.354;9.756;2022-12-16T11:32:38;13.52;;;10.80;;
14592;SDS011;7383;52.354;9.756;2022-12-16T11:35:23;12.02;;;10.20;;
14592;SDS011;7383;52.354;9.756;2022-12-16T11:38:09;11.68;;;10.50;;
14592;SDS011;7383;52.354;9.756;2022-12-16T11:40:55;11.35;;;10.18;;
14592;SDS011;7383;52.354;9.756;2022-12-16T11:43:40;11.50;;;10.30;;
14592;SDS011;7383;52.354;9.756;2022-12-16T11:46:31;11.30;;;9.65;;
14592;SDS011;7383;52.354;9.756;2022-12-16T11:49:16;10.27;;;9.20;;
14592;SDS011;7383;52.354;9.756;2022-12-16T11:52:03;11.10;;;9.80;;
14592;SDS011;7383;52.354;9.756;2022-12-16T11:54:49;10.25;;;9.25;;
14592;SDS011;7383;52.354;9.756;2022-12-16T11:57:38;11.70;;;9.25;;
14592;SDS011;7383;52.354;9.756;2022-12-16T12:00:24;11.15;;;10.05;;
14592;SDS011;7383;52.354;9.756;2022-12-16T12:03:08;10.55;;;9.55;;
14592;SDS011;7383;52.354;9.756;2022-12-16T12:05:56;11.18;;;10.00;;
14592;SDS011;7383;52.354;9.756;2022-12-16T12:08:42;10.93;;;9.77;;
14592;SDS011;7383;52.354;9.756;2022-12-16T12:11:29;10.52;;;9.45;;
14592;SDS011;7383;52.354;9.756;2022-12-16T12:14:16;10.90;;;9.88;;
14592;SDS011;7383;52.354;9.756;2022-12-16T12:17:07;11.45;;;10.25;;
14592;SDS011;7383;52.354;9.756;2022-12-16T12:19:59;11.60;;;10.40;;
14592;SDS011;7383;52.354;9.756;2022-12-16T12:22:46;10.65;;;9.65;;
14592;SDS011;7383;52.354;9.756;2022-12-16T12:25:28;11.35;;;10.25;;
14592;SDS011;7383;52.354;9.756;2022-12-16T12:28:17;14.80;;;11.32;;
14592;SDS011;7383;52.354;9.756;2022-12-16T12:31:08;12.73;;;11.43;;
14592;SDS011;7383;52.354;9.756;2022-12-16T12:33:57;13.07;;;11.68;;
14592;SDS011;7383;52.354;9.756;2022-12-16T12:36:44;12.23;;;11.02;;
14592;SDS011;7383;52.354;9.756;2022-12-16T12:39:31;12.82;;;11.48;;
14592;SDS011;7383;52.354;9.756;2022-12-16T12:42:21;13.68;;;11.77;;
14592;SDS011;7383;52.354;9.756;2022-12-16T12:45:15;12.98;;;11.73;;
14592;SDS011;7383;52.354;9.756;2022-12-16T12:48:05;14.15;;;12.43;;
14592;SDS011;7383;52.354;9.756;2022-12-16T12:50:52;15.85;;;14.18;;
14592;SDS011;7383;52.354;9.756;2022-12-16T12:53:39;18.73;;;16.93;;
14592;SDS011;7383;52.354;9.756;2022-12-16T12:56:28;18.70;;;16.90;;
14592;SDS011;7383;52.354;9.756;2022-12-16T12:59:19;14.68;;;13.13;;
14592;SDS011;7383;52.354;9.756;2022-12-16T13:02:09;17.27;;;15.43;;
14592;SDS011;7383;52.354;9.756;2022-12-16T13:05:11;18.97;;;17.07;;
14592;SDS011;7383;52.354;9.756;2022-12-16T13:11:03;13.82;;;12.50;;
14592;SDS011;7383;52.354;9.756;2022-12-16T13:13:55;12.65;;;11.35;;
14592;SDS011;7383;52.354;9.756;2022-12-16T13:19:56;12.07;;;10.43;;
14592;SDS011;7383;52.354;9.756;2022-12-16T13:22:41;11.93;;;10.73;;
14592;SDS011;7383;52.354;9.756;2022-12-16T13:25:29;12.48;;;11.18;;
14592;SDS011;7383;52.354;9.756;2022-12-16T13:28:19;14.93;;;12.07;;
14592;SDS011;7383;52.354;9.756;2022-12-16T13:31:04;14.20;;;11.52;;
14592;SDS011;7383;52.354;9.756;2022-12-16T13:33:49;12.20;;;10.70;;
14592;SDS011;7383;52.354;9.756;2022-12-16T13:36:34;12.90;;;11.60;;
14592;SDS011;7383;52.354;9.756;2022-12-16T13:39:23;12.73;;;11.43;;
14592;SDS011;7383;52.354;9.756;2022-12-16T13:45:23;11.15;;;10.05;;
14592;SDS011;7383;52.354;9.756;2022-12-16T13:51:06;12.13;;;10.23;;
14592;SDS011;7383;52.354;9.756;2022-12-16T13:53:50;12.27;;;10.35;;
14592;SDS011;7383;52.354;9.756;2022-12-16T13:56:38;11.23;;;10.07;;
14592;SDS011;7383;52.354;9.756;2022-12-16T13:59:24;10.27;;;9.27;;
14592;SDS011;7383;52.354;9.756;2022-12-16T14:02:14;12.02;;;10.50;;
14592;SDS011;7383;52.354;9.756;2022-12-16T14:05:00;11.75;;;10.23;;
14592;SDS011;7383;52.354;9.756;2022-12-16T14:07:44;11.68;;;10.48;;
14592;SDS011;7383;52.354;9.756;2022-12-16T14:10:29;11.82;;;10.50;;
14592;SDS011;7383;52.354;9.756;2022-12-16T14:13:16;12.75;;;10.85;;
14592;SDS011;7383;52.354;9.756;2022-12-16T14:16:04;11.48;;;9.80;;
14592;SDS011;7383;52.354;9.756;2022-12-16T14:18:52;11.85;;;10.63;;
14592;SDS011;7383;52.354;9.756;2022-12-16T14:21:44;11.32;;;10.13;;
14592;SDS011;7383;52.354;9.756;2022-12-16T14:24:30;11.05;;;9.95;;
14592;SDS011;7383;52.354;9.756;2022-12-16T14:27:15;11.48;;;10.20;;
14592;SDS011;7383;52.354;9.756;2022-12-16T14:30:02;11.75;;;10.55;;
14592;SDS011;7383;52.354;9.756;2022-12-16T14:32:46;12.23;;;10.65;;
14592;SDS011;7383;52.354;9.756;2022-12-16T14:35:30;11.13;;;9.95;;
14592;SDS011;7383;52.354;9.756;2022-12-16T14:38:19;12.10;;;10.65;;
14592;SDS011;7383;52.354;9.756;2022-12-16T14:41:04;11.50;;;10.32;;
14592;SDS011;7383;52.354;9.756;2022-12-16T14:43:48;11.15;;;9.80;;
14592;SDS011;7383;52.354;9.756;2022-12-16T14:46:33;11.40;;;10.20;;
14592;SDS011;7383;52.354;9.756;2022-12-16T14:49:18;11.38;;;10.13;;
14592;SDS011;7383;52.354;9.756;2022-12-16T14:52:11;10.65;;;9.50;;
14592;SDS011;7383;52.354;9.756;2022-12-16T14:54:57;11.18;;;10.07;;
14592;SDS011;7383;52.354;9.756;2022-12-16T14:57:43;11.73;;;10.48;;
14592;SDS011;7383;52.354;9.756;2022-12-16T15:00:27;12.35;;;11.05;;
14592;SDS011;7383;52.354;9.756;2022-12-16T15:03:14;12.80;;;10.93;;
14592;SDS011;7383;52.354;9.756;2022-12-16T15:05:59;11.63;;;10.48;;
14592;SDS011;7383;52.354;9.756;2022-12-16T15:08:46;12.32;;;11.05;;
14592;SDS011;7383;52.354;9.756;2022-12-16T15:11:27;12.07;;;10.82;;
14592;SDS011;7383;52.354;9.756;2022-12-16T15:14:13;13.38;;;11.98;;
14592;SDS011;7383;52.354;9.756;2022-12-16T15:17:01;12.90;;;11.57;;
14592;SDS011;7383;52.354;9.756;2022-12-16T15:19:48;14.40;;;12.80;;
14592;SDS011;7383;52.354;9.756;2022-12-16T15:22:33;13.45;;;11.77;;
14592;SDS011;7383;52.354;9.756;2022-12-16T15:25:18;13.23;;;11.48;;
14592;SDS011;7383;52.354;9.756;2022-12-16T15:28:02;13.68;;;12.20;;
14592;SDS011;7383;52.354;9.756;2022-12-16T15:30:46;13.85;;;12.10;;
14592;SDS011;7383;52.354;9.756;2022-12-16T15:33:31;15.18;;;12.27;;
14592;SDS011;7383;52.354;9.756;2022-12-16T15:36:20;14.90;;;12.80;;
14592;SDS011;7383;52.354;9.756;2022-12-16T15:39:08;12.77;;;11.43;;
14592;SDS011;7383;52.354;9.756;2022-12-16T15:41:53;13.55;;;11.95;;
14592;SDS011;7383;52.354;9.756;2022-12-16T15:44:43;13.20;;;11.90;;
14592;SDS011;7383;52.354;9.756;2022-12-16T15:47:30;13.32;;;11.98;;
14592;SDS011;7383;52.354;9.756;2022-12-16T15:50:14;12.65;;;11.35;;
14592;SDS011;7383;52.354;9.756;2022-12-16T15:53:14;13.60;;;12.20;;
14592;SDS011;7383;52.354;9.756;2022-12-16T15:55:58;13.40;;;12.00;;
14592;SDS011;7383;52.354;9.756;2022-12-16T15:58:42;13.95;;;11.60;;
14592;SDS011;7383;52.354;9.756;2022-12-16T16:01:26;13.00;;;11.70;;
14592;SDS011;7383;52.354;9.756;2022-12-16T16:04:14;12.50;;;10.95;;
14592;SDS011;7383;52.354;9.756;2022-12-16T16:07:00;12.75;;;11.30;;
14592;SDS011;7383;52.354;9.756;2022-12-16T16:09:45;12.95;;;11.63;;
14592;SDS011;7383;52.354;9.756;2022-12-16T16:12:29;13.93;;;12.13;;
14592;SDS011;7383;52.354;9.756;2022-12-16T16:15:13;13.30;;;11.93;;
14592;SDS011;7383;52.354;9.756;2022-12-16T16:17:58;13.82;;;11.85;;
14592;SDS011;7383;52.354;9.756;2022-12-16T16:20:42;12.40;;;11.20;;
14592;SDS011;7383;52.354;9.756;2022-12-16T16:23:26;13.38;;;11.98;;
14592;SDS011;7383;52.354;9.756;2022-12-16T16:26:12;12.20;;;11.00;;
14592;SDS011;7383;52.354;9.756;2022-12-16T16:28:56;13.55;;;12.02;;